Terminal Aerodrome Forecast
Issued by NWS

Home | Current Version | Previous Version | Text Only | Print | Product List | Glossary On
Versions: 1 2 3 4 5 6 7 8 9 10 11 12 13 14 15 16 17 18 19 20 21 22 23 24 25 26 27 28
000
FTPQ31 PGUM 111700 RRA
TAFPQ
TAF

PGSN 111749Z 1118/1218 07008KT 6SM -SHRA SCT014CB BKN050 BKN120
      TEMPO 1118/1119 2SM TSRA BKN016CB OVC030
     FM112200 12010KT P6SM VCSH SCT015CB BKN045 BKN120
     FM120100 11010KT P6SM VCSH SCT018 BKN120=

USA.gov is the U.S. government's official web portal to all federal, state and local government web resources and services.